createdAt,value
2022-07-31T00:01:16.057Z,92.40
2022-07-31T00:03:43.180Z,92.40
2022-07-31T00:06:10.391Z,92.50
2022-07-31T00:08:37.507Z,92.50
2022-07-31T00:11:04.562Z,92.60
2022-07-31T00:13:57.593Z,92.60
2022-07-31T00:16:21.311Z,92.60
2022-07-31T00:18:48.519Z,92.60
2022-07-31T00:21:15.748Z,92.70
2022-07-31T00:23:42.841Z,92.70
2022-07-31T00:26:10.423Z,92.70
2022-07-31T00:28:38.127Z,92.80
2022-07-31T00:31:05.211Z,92.80
2022-07-31T00:33:32.408Z,92.80
2022-07-31T00:35:59.519Z,92.80
2022-07-31T00:38:27.576Z,92.90
2022-07-31T00:40:55.239Z,92.90
2022-07-31T00:43:22.535Z,92.90
2022-07-31T00:45:58.560Z,92.90
2022-07-31T00:48:27.624Z,92.90
2022-07-31T00:50:55.865Z,92.90
2022-07-31T00:53:22.989Z,92.90
2022-07-31T00:55:51.274Z,92.90
2022-07-31T00:58:20.295Z,92.90
2022-07-31T01:00:48.913Z,92.90
2022-07-31T01:03:16.599Z,92.90
2022-07-31T01:05:43.648Z,93.00
2022-07-31T01:08:10.932Z,93.00
2022-07-31T01:10:54.886Z,93.00
2022-07-31T01:13:35.860Z,93.10
2022-07-31T01:16:05.182Z,93.10
2022-07-31T01:18:34.887Z,93.10
2022-07-31T01:21:10.695Z,93.10
2022-07-31T01:24:06.655Z,93.10
2022-07-31T01:26:56.977Z,93.20
2022-07-31T01:29:30.864Z,93.10
2022-07-31T01:32:01.825Z,93.20
2022-07-31T01:34:40.446Z,93.20
2022-07-31T01:37:16.134Z,93.40
2022-07-31T01:39:50.822Z,93.40
2022-07-31T01:42:19.874Z,93.50
2022-07-31T01:44:50.822Z,93.60
2022-07-31T01:47:21.852Z,93.70
2022-07-31T01:49:54.964Z,93.70
2022-07-31T01:52:24.644Z,93.80
2022-07-31T01:54:54.636Z,93.80
2022-07-31T01:57:26.076Z,93.90
2022-07-31T01:59:58.740Z,94.00
2022-07-31T02:02:27.268Z,93.90
2022-07-31T02:04:55.503Z,93.80
2022-07-31T02:07:23.299Z,94.00
2022-07-31T02:09:58.021Z,94.10
2022-07-31T02:12:33.614Z,94.20
2022-07-31T02:15:06.893Z,94.20
2022-07-31T02:17:35.173Z,94.30
2022-07-31T02:20:05.940Z,94.30
2022-07-31T02:22:34.842Z,94.40
2022-07-31T02:25:02.750Z,94.50
2022-07-31T02:27:57.905Z,94.50
2022-07-31T02:30:18.801Z,94.60
2022-07-31T02:32:48.211Z,94.70
2022-07-31T02:35:17.485Z,94.80
2022-07-31T02:37:48.834Z,94.80
2022-07-31T02:40:17.340Z,94.80
2022-07-31T02:42:47.118Z,94.90
2022-07-31T02:45:15.986Z,95.00
2022-07-31T02:47:43.508Z,95.00
2022-07-31T02:50:11.074Z,95.00
2022-07-31T02:52:39.050Z,95.10
2022-07-31T02:55:06.502Z,95.20
2022-07-31T02:57:33.652Z,95.20
2022-07-31T03:00:01.034Z,95.30
2022-07-31T03:02:37.096Z,95.40
2022-07-31T03:05:05.523Z,95.50
2022-07-31T03:07:32.568Z,95.50
2022-07-31T03:09:59.571Z,95.60
2022-07-31T03:12:26.752Z,95.60
2022-07-31T03:14:55.559Z,95.60
2022-07-31T03:17:23.740Z,95.70
2022-07-31T03:20:07.782Z,95.70
2022-07-31T03:22:35.518Z,95.80
2022-07-31T03:25:04.075Z,95.80
2022-07-31T03:27:31.174Z,95.90
2022-07-31T03:29:58.209Z,96.00
2022-07-31T03:32:25.341Z,96.00
2022-07-31T03:34:52.545Z,96.00
2022-07-31T03:37:19.640Z,96.10
2022-07-31T03:39:46.666Z,96.20
2022-07-31T03:42:18.988Z,96.20
2022-07-31T03:44:48.127Z,96.20
2022-07-31T03:47:16.638Z,96.30
2022-07-31T03:49:44.510Z,96.40
2022-07-31T03:52:12.686Z,96.40
2022-07-31T03:54:41.338Z,96.50
2022-07-31T03:57:10.038Z,96.60
2022-07-31T03:59:40.493Z,96.60
2022-07-31T04:02:17.927Z,96.70
2022-07-31T04:04:46.095Z,96.70
2022-07-31T04:07:13.178Z,96.70
2022-07-31T04:09:40.494Z,96.80
2022-07-31T04:12:07.958Z,96.90
2022-07-31T04:14:35.170Z,97.00
2022-07-31T04:17:02.316Z,97.00
2022-07-31T04:19:32.709Z,97.10
2022-07-31T04:22:00.667Z,97.10
2022-07-31T04:24:28.094Z,97.20
2022-07-31T04:26:55.902Z,97.30
2022-07-31T04:29:23.459Z,97.70
2022-07-31T04:31:50.926Z,97.40
2022-07-31T04:34:17.946Z,97.40
2022-07-31T04:36:44.951Z,97.50
2022-07-31T04:39:12.082Z,97.60
2022-07-31T04:41:39.980Z,97.70
2022-07-31T04:44:07.012Z,97.70
2022-07-31T04:46:34.115Z,97.80
2022-07-31T04:49:01.185Z,97.90
2022-07-31T04:51:28.244Z,97.90
2022-07-31T04:53:55.351Z,98.00
2022-07-31T04:56:34.242Z,98.00
2022-07-31T04:59:05.701Z,98.00
2022-07-31T05:01:33.172Z,98.00
2022-07-31T05:04:00.847Z,98.00
2022-07-31T05:06:39.419Z,97.90
2022-07-31T05:09:18.720Z,98.10
2022-07-31T05:11:48.413Z,98.10
2022-07-31T05:14:17.090Z,98.20
2022-07-31T05:16:45.181Z,98.20
2022-07-31T05:19:13.747Z,98.30
2022-07-31T05:21:53.055Z,98.30
2022-07-31T05:24:33.704Z,98.30
2022-07-31T05:27:05.029Z,98.30
2022-07-31T05:29:33.369Z,98.40
2022-07-31T05:32:01.516Z,98.40
2022-07-31T05:34:30.456Z,98.40
2022-07-31T05:37:01.501Z,98.40
2022-07-31T05:39:29.535Z,98.40
2022-07-31T05:41:56.719Z,98.40
2022-07-31T05:44:24.849Z,98.40
2022-07-31T05:49:19.828Z,98.50
2022-07-31T05:51:47.472Z,98.50
2022-07-31T05:54:14.761Z,98.60
2022-07-31T05:56:41.758Z,98.60
2022-07-31T05:59:09.989Z,98.60
2022-07-31T06:01:38.103Z,98.60
2022-07-31T06:04:05.298Z,98.60
2022-07-31T06:06:32.396Z,98.60
2022-07-31T06:09:04.022Z,98.60
2022-07-31T06:11:31.915Z,98.60
2022-07-31T06:13:59.030Z,98.60
2022-07-31T06:16:26.066Z,98.70
2022-07-31T06:18:53.165Z,98.60
2022-07-31T06:23:46.167Z,98.70
2022-07-31T06:26:15.786Z,98.70
2022-07-31T06:28:48.669Z,98.60
2022-07-31T06:31:21.252Z,98.60
2022-07-31T06:33:49.646Z,98.60
2022-07-31T06:36:18.425Z,98.60
2022-07-31T06:38:49.108Z,98.60
2022-07-31T06:41:36.311Z,98.60
2022-07-31T06:44:03.959Z,98.60
2022-07-31T06:46:31.321Z,98.60
2022-07-31T06:48:58.595Z,98.60
2022-07-31T06:51:31.171Z,98.60
2022-07-31T06:54:04.479Z,98.60
2022-07-31T06:56:32.355Z,98.60
2022-07-31T06:58:59.933Z,98.40
2022-07-31T07:01:27.218Z,98.40
2022-07-31T07:03:55.268Z,98.50
2022-07-31T07:06:22.869Z,98.30
2022-07-31T07:08:51.713Z,98.30
2022-07-31T07:11:19.603Z,98.10
2022-07-31T07:13:47.107Z,97.90
2022-07-31T07:16:15.441Z,97.80
2022-07-31T07:18:43.540Z,97.60
2022-07-31T07:21:11.498Z,97.40
2022-07-31T07:23:39.033Z,97.20
2022-07-31T07:26:06.591Z,97.10
2022-07-31T07:28:34.510Z,96.90
2022-07-31T07:31:02.861Z,96.60
2022-07-31T07:33:39.486Z,96.50
2022-07-31T07:36:23.342Z,96.40
2022-07-31T07:38:54.823Z,96.30
2022-07-31T07:41:22.277Z,96.20
2022-07-31T07:43:52.390Z,96.00
2022-07-31T07:46:21.717Z,95.80
2022-07-31T07:48:51.259Z,95.70
2022-07-31T07:51:19.394Z,95.80
2022-07-31T07:53:46.672Z,95.60
2022-07-31T07:56:14.089Z,95.40
2022-07-31T07:58:41.457Z,95.10
2022-07-31T08:01:08.884Z,95.10
2022-07-31T08:03:49.405Z,94.90
2022-07-31T08:06:21.361Z,94.60
2022-07-31T08:08:48.513Z,93.90
2022-07-31T08:11:17.326Z,93.50
2022-07-31T08:13:51.061Z,93.20
2022-07-31T08:16:20.480Z,92.70
2022-07-31T08:18:48.731Z,92.40
2022-07-31T08:21:16.019Z,91.60
2022-07-31T08:23:43.298Z,91.20
2022-07-31T08:26:10.491Z,90.20
2022-07-31T08:28:38.968Z,90.20
2022-07-31T08:31:06.282Z,89.40
2022-07-31T08:33:33.585Z,89.10
2022-07-31T08:36:01.468Z,89.00
2022-07-31T08:38:29.290Z,88.70
2022-07-31T08:40:56.505Z,87.80
2022-07-31T08:44:01.440Z,87.30
2022-07-31T08:46:11.483Z,86.40
2022-07-31T08:48:41.475Z,86.70
2022-07-31T08:51:12.946Z,86.30
2022-07-31T08:53:42.541Z,84.80
2022-07-31T08:56:09.999Z,84.20
2022-07-31T08:58:39.785Z,84.30
2022-07-31T09:01:08.962Z,84.20
2022-07-31T09:03:36.520Z,84.00
2022-07-31T09:08:33.758Z,82.00
2022-07-31T09:11:08.038Z,81.40
2022-07-31T09:13:35.696Z,80.60
2022-07-31T09:16:04.041Z,79.20
2022-07-31T09:18:31.741Z,78.80
2022-07-31T09:21:00.209Z,78.50
2022-07-31T09:23:30.236Z,77.20
2022-07-31T09:26:03.524Z,77.30
2022-07-31T09:28:34.717Z,76.10
2022-07-31T09:31:03.340Z,74.90
2022-07-31T09:33:31.985Z,74.70
2022-07-31T09:36:00.219Z,74.10
2022-07-31T09:38:33.149Z,73.50
2022-07-31T09:41:56.360Z,72.90
2022-07-31T09:44:09.970Z,72.40
2022-07-31T09:46:46.517Z,72.30
2022-07-31T09:49:14.370Z,72.10
2022-07-31T09:51:43.233Z,72.00
2022-07-31T09:54:27.819Z,72.40
2022-07-31T09:56:54.951Z,72.10
2022-07-31T09:59:22.296Z,72.30
2022-07-31T10:01:50.083Z,72.60
2022-07-31T10:04:18.574Z,71.20
2022-07-31T10:06:50.906Z,69.90
2022-07-31T10:09:20.340Z,69.30
2022-07-31T10:11:49.949Z,68.80
2022-07-31T10:14:40.454Z,67.50
2022-07-31T10:17:09.952Z,66.20
2022-07-31T10:19:38.754Z,67.40
2022-07-31T10:22:09.615Z,66.60
2022-07-31T10:24:43.539Z,66.20
2022-07-31T10:27:12.194Z,66.30
2022-07-31T10:29:41.720Z,67.30
2022-07-31T10:32:09.528Z,67.90
2022-07-31T10:34:37.514Z,68.20
2022-07-31T10:37:15.292Z,67.50
2022-07-31T10:40:01.118Z,67.40
2022-07-31T10:42:51.871Z,67.40
2022-07-31T10:45:19.292Z,66.90
2022-07-31T10:48:01.316Z,67.80
2022-07-31T10:50:30.917Z,66.40
2022-07-31T10:53:14.101Z,65.90
2022-07-31T10:55:42.393Z,65.20
2022-07-31T10:58:15.764Z,66.20
2022-07-31T11:00:43.747Z,65.60
2022-07-31T11:03:22.179Z,66.60
2022-07-31T11:06:02.135Z,66.30
2022-07-31T11:08:41.834Z,66.10
2022-07-31T11:11:09.689Z,64.90
2022-07-31T11:13:58.308Z,64.00
2022-07-31T11:16:25.476Z,62.00
2022-07-31T11:19:07.089Z,62.60
2022-07-31T11:21:40.978Z,62.30
2022-07-31T11:24:22.462Z,62.10
2022-07-31T11:26:56.252Z,62.30
2022-07-31T11:30:01.280Z,63.00
2022-07-31T11:32:29.797Z,62.40
2022-07-31T11:34:58.056Z,62.20
2022-07-31T11:37:30.595Z,61.50
2022-07-31T11:40:11.583Z,61.90
2022-07-31T11:42:47.060Z,62.40
2022-07-31T11:45:20.052Z,60.70
2022-07-31T11:48:12.797Z,59.90
2022-07-31T11:50:44.009Z,59.90
2022-07-31T11:53:12.090Z,60.10
2022-07-31T11:55:49.041Z,60.30
2022-07-31T11:58:20.073Z,59.60
2022-07-31T12:00:56.481Z,59.80
2022-07-31T12:03:29.326Z,59.50
2022-07-31T12:05:57.583Z,60.20
2022-07-31T12:08:25.841Z,59.80
2022-07-31T12:10:54.308Z,58.40
2022-07-31T12:13:23.145Z,58.60
2022-07-31T12:16:10.115Z,58.80
2022-07-31T12:18:59.395Z,57.90
2022-07-31T12:21:38.027Z,57.70
2022-07-31T12:24:13.128Z,58.50
2022-07-31T12:26:44.325Z,57.70
2022-07-31T12:29:12.732Z,57.70
2022-07-31T12:32:00.218Z,58.50
2022-07-31T12:34:34.157Z,58.20
2022-07-31T12:37:07.762Z,58.20
2022-07-31T12:39:59.303Z,58.40
2022-07-31T12:42:37.579Z,58.40
2022-07-31T12:45:18.026Z,58.10
2022-07-31T12:47:51.559Z,57.90
2022-07-31T12:50:24.351Z,57.20
2022-07-31T12:52:52.084Z,57.10
2022-07-31T12:55:19.818Z,57.20
2022-07-31T12:57:51.878Z,56.40
2022-07-31T13:00:23.232Z,57.10
2022-07-31T13:02:52.107Z,56.70
2022-07-31T13:05:19.525Z,57.30
2022-07-31T13:07:47.057Z,56.90
2022-07-31T13:10:18.933Z,57.10
2022-07-31T13:12:50.721Z,57.60
2022-07-31T13:15:20.731Z,57.80
2022-07-31T13:17:50.488Z,58.00
2022-07-31T13:20:18.876Z,58.30
2022-07-31T13:22:45.971Z,58.10
2022-07-31T13:25:13.306Z,57.60
2022-07-31T13:27:41.366Z,56.70
2022-07-31T13:30:09.852Z,57.00
2022-07-31T13:32:37.288Z,57.40
2022-07-31T13:35:19.558Z,57.60
2022-07-31T13:37:53.901Z,57.30
2022-07-31T13:40:41.000Z,56.90
2022-07-31T13:43:08.643Z,57.30
2022-07-31T13:45:36.242Z,56.50
2022-07-31T13:48:08.699Z,56.30
2022-07-31T13:50:40.379Z,55.70
2022-07-31T13:53:07.989Z,55.90
2022-07-31T13:55:35.094Z,56.20
2022-07-31T13:58:02.809Z,56.10
2022-07-31T14:00:30.912Z,56.10
2022-07-31T14:02:58.712Z,55.80
2022-07-31T14:05:27.462Z,54.90
2022-07-31T14:07:55.726Z,55.20
2022-07-31T14:10:24.144Z,55.60
2022-07-31T14:12:53.584Z,55.40
2022-07-31T14:15:20.915Z,55.50
2022-07-31T14:17:47.972Z,55.50
2022-07-31T14:20:15.011Z,55.10
2022-07-31T14:22:42.809Z,54.60
2022-07-31T14:25:10.713Z,54.70
2022-07-31T14:27:38.803Z,54.70
2022-07-31T14:30:09.764Z,55.10
2022-07-31T14:32:37.165Z,55.50
2022-07-31T14:35:08.362Z,55.60
2022-07-31T14:37:36.063Z,55.50
2022-07-31T14:40:06.390Z,55.10
2022-07-31T14:42:33.528Z,55.00
2022-07-31T14:45:03.222Z,55.40
2022-07-31T14:47:31.492Z,55.20
2022-07-31T14:50:09.968Z,55.30
2022-07-31T14:52:38.880Z,56.00
2022-07-31T14:55:06.485Z,56.20
2022-07-31T14:57:33.788Z,56.00
2022-07-31T15:00:00.959Z,56.60
2022-07-31T15:02:28.231Z,56.70
2022-07-31T15:04:55.409Z,56.10
2022-07-31T15:07:43.970Z,55.50
2022-07-31T15:10:11.282Z,55.10
2022-07-31T15:12:39.482Z,55.20
2022-07-31T15:15:08.157Z,54.00
2022-07-31T15:17:35.275Z,53.20
2022-07-31T15:20:02.433Z,52.70
2022-07-31T15:22:30.019Z,52.20
2022-07-31T15:24:57.275Z,51.20
2022-07-31T15:27:25.167Z,51.50
2022-07-31T15:30:00.230Z,51.40
2022-07-31T15:32:36.119Z,51.00
2022-07-31T15:35:04.749Z,50.80
2022-07-31T15:37:36.994Z,50.10
2022-07-31T15:40:06.755Z,49.60
2022-07-31T15:42:38.620Z,49.60
2022-07-31T15:45:07.116Z,49.60
2022-07-31T15:47:34.239Z,50.00
2022-07-31T15:50:01.403Z,49.90
2022-07-31T15:52:28.467Z,49.30
2022-07-31T15:54:55.622Z,49.30
2022-07-31T15:57:23.978Z,49.40
2022-07-31T15:59:54.690Z,49.80
2022-07-31T16:02:23.739Z,49.70
2022-07-31T16:04:54.803Z,50.30
2022-07-31T16:08:32.668Z,50.10
2022-07-31T16:10:15.733Z,50.10
2022-07-31T16:12:47.763Z,50.40
2022-07-31T16:15:16.820Z,50.40
2022-07-31T16:17:44.731Z,50.60
2022-07-31T16:20:20.635Z,50.80
2022-07-31T16:23:01.357Z,51.30
2022-07-31T16:25:32.053Z,51.50
2022-07-31T16:28:01.902Z,51.90
2022-07-31T16:30:28.990Z,52.20
2022-07-31T16:32:56.269Z,52.70
2022-07-31T16:35:26.374Z,53.00
2022-07-31T16:37:54.365Z,53.40
2022-07-31T16:40:30.629Z,53.90
2022-07-31T16:43:50.388Z,54.00
2022-07-31T16:45:53.977Z,54.00
2022-07-31T16:48:21.539Z,54.50
2022-07-31T16:50:54.231Z,54.70
2022-07-31T16:54:10.299Z,54.90
2022-07-31T16:56:15.559Z,55.30
2022-07-31T16:58:44.224Z,55.60
2022-07-31T17:01:58.394Z,55.70
2022-07-31T17:04:03.470Z,55.80
2022-07-31T17:06:36.587Z,56.00
2022-07-31T17:09:15.255Z,56.50
2022-07-31T17:11:46.541Z,56.80
2022-07-31T17:14:13.856Z,56.90
2022-07-31T17:16:46.468Z,57.30
2022-07-31T17:19:14.990Z,58.00
2022-07-31T17:21:44.382Z,58.50
2022-07-31T17:24:15.796Z,58.60
2022-07-31T17:26:44.093Z,59.00
2022-07-31T17:29:12.393Z,59.70
2022-07-31T17:31:39.485Z,60.30
2022-07-31T17:34:09.229Z,60.70
2022-07-31T17:36:37.086Z,61.50
2022-07-31T17:39:05.100Z,62.30
2022-07-31T17:41:32.604Z,62.90
2022-07-31T17:43:59.975Z,63.20
2022-07-31T17:46:29.948Z,63.80
2022-07-31T17:49:02.507Z,64.50
2022-07-31T17:51:29.763Z,65.10
2022-07-31T17:53:59.222Z,65.60
2022-07-31T17:56:27.164Z,66.10
2022-07-31T17:58:55.678Z,66.60
2022-07-31T18:01:28.783Z,67.30
2022-07-31T18:03:56.683Z,67.90
2022-07-31T18:06:24.068Z,68.40
2022-07-31T18:08:51.126Z,68.80
2022-07-31T18:11:19.487Z,69.30
2022-07-31T18:13:54.133Z,69.90
2022-07-31T18:16:23.659Z,71.50
2022-07-31T18:18:54.454Z,71.10
2022-07-31T18:21:22.932Z,71.70
2022-07-31T18:23:50.208Z,72.20
2022-07-31T18:26:17.462Z,72.40
2022-07-31T18:28:44.498Z,73.00
2022-07-31T18:31:32.080Z,73.50
2022-07-31T18:33:58.816Z,73.90
2022-07-31T18:36:27.270Z,74.00
2022-07-31T18:38:54.525Z,74.40
2022-07-31T18:41:21.798Z,74.80
2022-07-31T18:43:49.009Z,75.20
2022-07-31T18:46:18.611Z,75.60
2022-07-31T18:48:45.976Z,75.80
2022-07-31T18:51:13.255Z,76.10
2022-07-31T18:53:40.542Z,76.40
2022-07-31T18:56:07.769Z,76.70
2022-07-31T18:58:34.931Z,76.90
2022-07-31T19:01:02.342Z,77.20
2022-07-31T19:03:31.057Z,77.30
2022-07-31T19:05:58.859Z,77.30
2022-07-31T19:08:26.127Z,77.50
2022-07-31T19:10:53.941Z,77.70
2022-07-31T19:13:22.308Z,77.70
2022-07-31T19:15:51.953Z,77.70
2022-07-31T19:18:28.299Z,77.90
2022-07-31T19:21:23.638Z,78.10
2022-07-31T19:23:44.312Z,78.10
2022-07-31T19:26:11.679Z,78.20
2022-07-31T19:28:40.010Z,78.30
2022-07-31T19:31:07.532Z,78.40
2022-07-31T19:33:35.073Z,78.70
2022-07-31T19:36:03.266Z,79.00
2022-07-31T19:38:32.168Z,79.20
2022-07-31T19:40:59.636Z,79.40
2022-07-31T19:43:27.464Z,79.40
2022-07-31T19:46:09.474Z,79.60
2022-07-31T19:48:44.441Z,79.80
2022-07-31T19:51:12.752Z,80.10
2022-07-31T19:53:40.344Z,80.30
2022-07-31T19:56:08.027Z,80.50
2022-07-31T19:58:36.182Z,80.70
2022-07-31T20:01:08.284Z,80.90
2022-07-31T20:03:37.719Z,81.00
2022-07-31T20:06:05.203Z,81.30
2022-07-31T20:08:32.974Z,81.40
2022-07-31T20:11:03.736Z,81.50
2022-07-31T20:13:32.547Z,81.70
2022-07-31T20:15:59.736Z,81.80
2022-07-31T20:18:28.547Z,82.10
2022-07-31T20:21:07.047Z,82.50
2022-07-31T20:23:36.934Z,82.90
2022-07-31T20:26:05.395Z,83.00
2022-07-31T20:28:32.462Z,83.20
2022-07-31T20:30:59.600Z,83.40
2022-07-31T20:33:26.804Z,83.60
2022-07-31T20:35:53.881Z,83.70
2022-07-31T20:38:25.100Z,83.90
2022-07-31T20:40:55.653Z,84.00
2022-07-31T20:43:27.837Z,83.90
2022-07-31T20:45:59.646Z,84.00
2022-07-31T20:48:35.020Z,84.00
2022-07-31T20:51:03.870Z,84.00
2022-07-31T20:53:32.261Z,84.00
2022-07-31T20:55:59.596Z,84.20
2022-07-31T20:58:26.772Z,84.20
2022-07-31T21:00:54.449Z,84.20
2022-07-31T21:03:22.289Z,84.30
2022-07-31T21:05:49.948Z,84.60
2022-07-31T21:08:17.607Z,84.70
2022-07-31T21:10:45.041Z,84.80
2022-07-31T21:13:12.277Z,85.00
2022-07-31T21:15:44.133Z,85.20
2022-07-31T21:18:16.220Z,85.40
2022-07-31T21:20:51.947Z,85.70
2022-07-31T21:23:24.918Z,85.80
2022-07-31T21:25:53.722Z,85.90
2022-07-31T21:28:21.934Z,86.00
2022-07-31T21:30:49.212Z,86.10
2022-07-31T21:33:18.357Z,86.10
2022-07-31T21:35:47.009Z,86.30
2022-07-31T21:38:17.450Z,86.30
2022-07-31T21:40:45.908Z,86.20
2022-07-31T21:43:16.966Z,86.80
2022-07-31T21:45:55.262Z,86.10
2022-07-31T21:48:27.844Z,86.10
2022-07-31T21:50:55.558Z,86.00
2022-07-31T21:53:23.430Z,86.60
2022-07-31T21:55:50.994Z,85.70
2022-07-31T21:58:18.337Z,85.60
2022-07-31T22:00:45.940Z,85.40
2022-07-31T22:03:13.183Z,85.40
2022-07-31T22:05:58.654Z,85.40
2022-07-31T22:08:26.026Z,85.60
2022-07-31T22:10:53.444Z,85.50
2022-07-31T22:13:21.012Z,85.60
2022-07-31T22:15:59.090Z,85.80
2022-07-31T22:18:29.857Z,85.90
2022-07-31T22:20:57.752Z,86.10
2022-07-31T22:23:26.055Z,86.20
2022-07-31T22:25:53.319Z,86.50
2022-07-31T22:28:22.007Z,86.70
2022-07-31T22:30:49.883Z,87.10
2022-07-31T22:33:17.138Z,87.50
2022-07-31T22:35:44.439Z,87.80
2022-07-31T22:38:11.811Z,88.10
2022-07-31T22:40:39.082Z,88.50
2022-07-31T22:44:05.617Z,88.90
2022-07-31T22:45:54.980Z,89.40
2022-07-31T22:48:24.799Z,89.80
2022-07-31T22:50:51.941Z,90.20
2022-07-31T22:53:19.105Z,90.30
2022-07-31T22:55:46.200Z,90.50
2022-07-31T22:58:15.299Z,90.70
2022-07-31T23:00:43.199Z,91.00
2022-07-31T23:03:10.301Z,91.10
2022-07-31T23:06:02.723Z,91.30
2022-07-31T23:08:24.826Z,91.50
2022-07-31T23:10:51.852Z,91.60
2022-07-31T23:13:18.862Z,91.80
2022-07-31T23:15:46.003Z,92.00
2022-07-31T23:18:13.051Z,92.20
2022-07-31T23:20:40.209Z,92.40
2022-07-31T23:23:07.364Z,92.50
2022-07-31T23:25:34.462Z,92.70
2022-07-31T23:28:01.501Z,92.90
2022-07-31T23:30:28.659Z,93.00
2022-07-31T23:32:55.689Z,93.20
2022-07-31T23:35:22.764Z,93.40
2022-07-31T23:37:49.900Z,93.50
2022-07-31T23:40:16.923Z,93.70
2022-07-31T23:42:43.955Z,93.90
2022-07-31T23:45:13.088Z,94.00
2022-07-31T23:47:45.838Z,94.10
2022-07-31T23:50:15.338Z,94.30
2022-07-31T23:52:44.055Z,94.40
2022-07-31T23:55:11.601Z,94.60
2022-07-31T23:57:40.225Z,94.70
